createdAt,value
2022-08-14T00:01:11.349Z,20.94
2022-08-14T00:03:41.655Z,20.93
2022-08-14T00:06:25.387Z,20.92
2022-08-14T00:08:59.536Z,20.92
2022-08-14T00:11:32.036Z,20.92
2022-08-14T00:14:02.344Z,20.90
2022-08-14T00:16:41.576Z,20.89
2022-08-14T00:19:19.068Z,20.87
2022-08-14T00:21:50.697Z,20.87
2022-08-14T00:24:28.954Z,20.86
2022-08-14T00:27:02.400Z,20.86
2022-08-14T00:29:33.109Z,20.84
2022-08-14T00:32:53.230Z,20.83
2022-08-14T00:35:01.387Z,20.83
2022-08-14T00:37:30.754Z,20.81
2022-08-14T00:40:18.798Z,20.77
2022-08-14T00:42:56.237Z,20.75
2022-08-14T00:45:27.456Z,20.75
2022-08-14T00:48:00.271Z,20.76
2022-08-14T00:50:31.156Z,20.69
2022-08-14T00:53:01.841Z,20.70
2022-08-14T00:55:35.944Z,20.67
2022-08-14T00:58:27.729Z,20.68
2022-08-14T01:01:04.305Z,20.63
2022-08-14T01:03:39.582Z,20.62
2022-08-14T01:06:14.153Z,20.62
2022-08-14T01:08:52.339Z,20.61
2022-08-14T01:11:31.521Z,20.61
2022-08-14T01:14:25.557Z,20.62
2022-08-14T01:16:55.544Z,20.57
2022-08-14T01:19:43.626Z,20.58
2022-08-14T01:22:18.881Z,20.60
2022-08-14T01:24:50.930Z,20.55
2022-08-14T01:27:24.454Z,20.56
2022-08-14T01:30:00.858Z,20.55
2022-08-14T01:32:35.653Z,20.55
2022-08-14T01:35:17.241Z,20.54
2022-08-14T01:37:59.826Z,20.55
2022-08-14T01:40:33.007Z,20.48
2022-08-14T01:43:03.613Z,20.47
2022-08-14T01:45:40.233Z,20.43
2022-08-14T01:48:13.843Z,20.40
2022-08-14T01:50:44.211Z,20.40
2022-08-14T01:53:17.818Z,20.40
2022-08-14T01:55:48.169Z,20.38
2022-08-14T01:58:21.063Z,20.36
2022-08-14T02:00:59.982Z,20.37
2022-08-14T02:03:35.345Z,20.36
2022-08-14T02:06:32.915Z,20.36
2022-08-14T02:09:04.320Z,20.36
2022-08-14T02:11:39.337Z,20.36
2022-08-14T02:14:10.234Z,20.34
2022-08-14T02:16:45.710Z,20.33
2022-08-14T02:19:18.521Z,20.33
2022-08-14T02:21:50.564Z,20.34
2022-08-14T02:24:39.776Z,20.34
2022-08-14T02:28:23.428Z,20.35
2022-08-14T02:30:02.571Z,20.37
2022-08-14T02:32:46.241Z,20.35
2022-08-14T02:35:18.898Z,20.33
2022-08-14T02:37:49.832Z,20.29
2022-08-14T02:40:32.577Z,20.29
2022-08-14T02:43:05.283Z,20.26
2022-08-14T02:45:38.700Z,20.27
2022-08-14T02:49:02.031Z,20.29
2022-08-14T02:51:07.227Z,20.27
2022-08-14T02:53:44.218Z,20.28
2022-08-14T02:56:30.563Z,20.30
2022-08-14T02:59:10.724Z,20.28
2022-08-14T03:01:43.476Z,20.25
2022-08-14T03:04:20.839Z,20.22
2022-08-14T03:06:57.624Z,20.20
2022-08-14T03:10:27.073Z,20.16
2022-08-14T03:12:31.699Z,20.14
2022-08-14T03:15:14.282Z,20.14
2022-08-14T03:17:57.938Z,20.15
2022-08-14T03:20:28.937Z,20.10
2022-08-14T03:23:03.103Z,20.08
2022-08-14T03:25:37.531Z,20.08
2022-08-14T03:28:14.657Z,20.03
2022-08-14T03:30:59.886Z,20.05
2022-08-14T03:33:38.065Z,20.02
2022-08-14T03:37:28.758Z,19.98
2022-08-14T03:39:12.193Z,19.98
2022-08-14T03:41:50.488Z,19.99
2022-08-14T03:45:18.932Z,19.99
2022-08-14T03:47:12.167Z,20.00
2022-08-14T03:49:50.042Z,20.01
2022-08-14T03:52:39.151Z,20.01
2022-08-14T03:55:12.312Z,19.98
2022-08-14T03:57:42.569Z,20.00
2022-08-14T04:00:40.499Z,20.00
2022-08-14T04:03:06.643Z,20.01
2022-08-14T04:05:43.393Z,20.02
2022-08-14T04:08:30.173Z,20.05
2022-08-14T04:11:01.837Z,20.04
2022-08-14T04:13:34.321Z,20.08
2022-08-14T04:16:06.809Z,20.08
2022-08-14T04:18:42.451Z,20.10
2022-08-14T04:21:12.793Z,20.12
2022-08-14T04:23:42.767Z,20.10
2022-08-14T04:26:27.155Z,20.12
2022-08-14T04:29:14.606Z,20.15
2022-08-14T04:33:01.948Z,20.16
2022-08-14T04:34:37.498Z,20.17
2022-08-14T04:37:29.133Z,20.17
2022-08-14T04:40:16.139Z,20.20
2022-08-14T04:43:03.350Z,20.21
2022-08-14T04:45:40.784Z,20.23
2022-08-14T04:48:36.748Z,20.26
2022-08-14T04:51:04.896Z,20.29
2022-08-14T04:53:36.035Z,20.32
2022-08-14T04:56:30.749Z,20.37
2022-08-14T04:59:09.406Z,20.39
2022-08-14T05:01:44.764Z,20.42
2022-08-14T05:04:19.984Z,20.47
2022-08-14T05:06:53.487Z,20.52
2022-08-14T05:09:28.621Z,20.55
2022-08-14T05:12:00.637Z,20.58
2022-08-14T05:14:54.742Z,20.64
2022-08-14T05:17:31.928Z,20.68
2022-08-14T05:21:10.954Z,20.71
2022-08-14T05:23:04.672Z,20.76
2022-08-14T05:25:34.417Z,20.79
2022-08-14T05:28:16.164Z,20.85
2022-08-14T05:30:46.732Z,20.87
2022-08-14T05:33:18.521Z,20.93
2022-08-14T05:35:50.979Z,20.97
2022-08-14T05:38:31.066Z,21.02
2022-08-14T05:41:02.530Z,21.07
2022-08-14T05:43:41.209Z,21.13
2022-08-14T05:46:15.307Z,21.16
2022-08-14T05:48:45.384Z,21.21
2022-08-14T05:51:16.656Z,21.23
2022-08-14T05:54:01.759Z,21.29
2022-08-14T05:56:37.148Z,21.33
2022-08-14T05:59:07.217Z,21.38
2022-08-14T06:01:37.043Z,21.42
2022-08-14T06:04:06.690Z,21.47
2022-08-14T06:06:38.521Z,21.51
2022-08-14T06:09:10.044Z,21.54
2022-08-14T06:11:39.899Z,21.61
2022-08-14T06:14:20.626Z,21.65
2022-08-14T06:16:52.024Z,21.70
2022-08-14T06:19:23.166Z,21.76
2022-08-14T06:21:58.381Z,21.80
2022-08-14T06:24:30.622Z,21.85
2022-08-14T06:27:06.397Z,21.91
2022-08-14T06:29:40.704Z,21.96
2022-08-14T06:32:38.854Z,22.03
2022-08-14T06:35:02.914Z,22.08
2022-08-14T06:37:43.770Z,22.14
2022-08-14T06:40:25.391Z,22.20
2022-08-14T06:43:00.449Z,22.25
2022-08-14T06:45:34.082Z,22.31
2022-08-14T06:48:03.789Z,22.35
2022-08-14T06:50:35.910Z,22.40
2022-08-14T06:53:07.295Z,22.47
2022-08-14T06:55:40.609Z,22.53
2022-08-14T06:58:24.749Z,22.63
2022-08-14T07:01:17.570Z,22.69
2022-08-14T07:04:07.097Z,22.75
2022-08-14T07:06:50.818Z,22.81
2022-08-14T07:09:22.615Z,22.86
2022-08-14T07:11:53.644Z,22.94
2022-08-14T07:14:22.599Z,22.98
2022-08-14T07:16:51.856Z,23.02
2022-08-14T07:19:21.349Z,23.07
2022-08-14T07:21:50.625Z,23.12
2022-08-14T07:24:26.125Z,23.20
2022-08-14T07:26:56.004Z,23.26
2022-08-14T07:29:28.704Z,23.32
2022-08-14T07:31:58.548Z,23.38
2022-08-14T07:34:40.959Z,23.43
2022-08-14T07:37:11.060Z,23.49
2022-08-14T07:39:43.979Z,23.56
2022-08-14T07:42:13.678Z,23.62
2022-08-14T07:44:46.285Z,23.69
2022-08-14T07:47:18.524Z,23.71
2022-08-14T07:50:00.164Z,23.76
2022-08-14T07:52:31.979Z,23.83
2022-08-14T07:55:03.342Z,23.90
2022-08-14T07:57:32.884Z,23.97
2022-08-14T08:00:02.358Z,24.04
2022-08-14T08:02:43.506Z,24.11
2022-08-14T08:05:16.566Z,24.19
2022-08-14T08:07:48.230Z,24.27
2022-08-14T08:11:02.587Z,24.31
2022-08-14T08:13:24.680Z,24.38
2022-08-14T08:15:59.097Z,24.44
2022-08-14T08:18:29.237Z,24.50
2022-08-14T08:21:00.187Z,24.55
2022-08-14T08:23:40.803Z,24.63
2022-08-14T08:26:21.788Z,24.69
2022-08-14T08:28:58.297Z,24.78
2022-08-14T08:31:32.899Z,24.83
2022-08-14T08:34:07.467Z,24.90
2022-08-14T08:36:46.561Z,24.95
2022-08-14T08:39:22.495Z,24.99
2022-08-14T08:41:54.109Z,25.06
2022-08-14T08:44:31.689Z,25.10
2022-08-14T08:47:06.184Z,25.14
2022-08-14T08:49:43.212Z,25.23
2022-08-14T08:52:25.257Z,25.27
2022-08-14T08:55:01.204Z,25.33
2022-08-14T08:57:38.050Z,25.40
2022-08-14T09:00:25.650Z,25.47
2022-08-14T09:03:03.313Z,25.56
2022-08-14T09:05:35.299Z,25.63
2022-08-14T09:08:30.134Z,25.69
2022-08-14T09:11:19.155Z,25.77
2022-08-14T09:13:54.853Z,25.86
2022-08-14T09:16:26.277Z,25.95
2022-08-14T09:18:56.399Z,26.01
2022-08-14T09:21:31.363Z,26.04
2022-08-14T09:24:29.036Z,26.10
2022-08-14T09:26:52.939Z,26.14
2022-08-14T09:29:24.172Z,26.19
2022-08-14T09:32:03.384Z,26.25
2022-08-14T09:34:58.693Z,26.29
2022-08-14T09:37:45.761Z,26.34
2022-08-14T09:40:26.498Z,26.38
2022-08-14T09:43:12.012Z,26.43
2022-08-14T09:45:53.580Z,26.46
2022-08-14T09:48:30.291Z,26.48
2022-08-14T09:54:18.139Z,26.67
2022-08-14T09:56:46.834Z,26.71
2022-08-14T09:59:28.291Z,26.78
2022-08-14T10:01:59.618Z,26.84
2022-08-14T10:04:34.599Z,26.88
2022-08-14T10:07:08.137Z,26.92
2022-08-14T10:09:57.684Z,26.96
2022-08-14T10:12:52.876Z,27.01
2022-08-14T10:15:25.367Z,27.04
2022-08-14T10:18:09.649Z,27.08
2022-08-14T10:20:55.320Z,27.13
2022-08-14T10:23:27.082Z,27.19
2022-08-14T10:26:05.247Z,27.27
2022-08-14T10:29:17.632Z,27.33
2022-08-14T10:31:44.624Z,27.36
2022-08-14T10:34:33.308Z,27.39
2022-08-14T10:37:14.541Z,27.40
2022-08-14T10:40:01.855Z,27.43
2022-08-14T10:42:39.620Z,27.46
2022-08-14T10:45:21.400Z,27.51
2022-08-14T10:48:07.682Z,27.53
2022-08-14T10:50:50.449Z,27.59
2022-08-14T10:53:31.035Z,27.64
2022-08-14T10:56:06.854Z,27.67
2022-08-14T10:59:01.319Z,27.69
2022-08-14T11:01:41.051Z,27.71
2022-08-14T11:04:25.247Z,27.72
2022-08-14T11:06:58.388Z,27.75
2022-08-14T11:09:32.056Z,27.80
2022-08-14T11:12:34.730Z,27.90
2022-08-14T11:14:58.824Z,27.98
2022-08-14T11:17:32.758Z,28.07
2022-08-14T11:20:04.181Z,28.19
2022-08-14T11:22:56.209Z,28.29
2022-08-14T11:25:36.841Z,28.37
2022-08-14T11:28:18.740Z,28.44
2022-08-14T11:30:53.678Z,28.41
2022-08-14T11:33:25.501Z,28.34
2022-08-14T11:35:59.652Z,28.30
2022-08-14T11:38:37.883Z,28.30
2022-08-14T11:41:08.271Z,28.35
2022-08-14T11:43:46.868Z,28.37
2022-08-14T11:46:29.613Z,28.42
2022-08-14T11:49:05.557Z,28.44
2022-08-14T11:51:54.158Z,28.49
2022-08-14T11:54:34.026Z,28.55
2022-08-14T11:57:05.685Z,28.59
2022-08-14T11:59:35.194Z,28.65
2022-08-14T12:03:00.518Z,28.71
2022-08-14T12:05:04.129Z,28.72
2022-08-14T12:07:34.022Z,28.75
2022-08-14T12:10:25.392Z,28.75
2022-08-14T12:12:56.428Z,28.77
2022-08-14T12:15:36.235Z,28.79
2022-08-14T12:18:06.596Z,28.80
2022-08-14T12:20:45.920Z,28.81
2022-08-14T12:23:27.713Z,28.80
2022-08-14T12:26:39.591Z,28.80
2022-08-14T12:29:08.728Z,28.79
2022-08-14T12:31:44.905Z,28.81
2022-08-14T12:34:20.399Z,28.85
2022-08-14T12:37:03.274Z,28.89
2022-08-14T12:39:39.947Z,28.90
2022-08-14T12:42:11.824Z,28.91
2022-08-14T12:45:03.913Z,28.91
2022-08-14T12:47:33.785Z,28.96
2022-08-14T12:50:03.949Z,28.96
2022-08-14T12:52:43.081Z,28.99
2022-08-14T12:55:32.705Z,29.01
2022-08-14T12:58:29.530Z,28.96
2022-08-14T13:01:17.212Z,29.01
2022-08-14T13:03:52.098Z,28.99
2022-08-14T13:06:24.531Z,29.02
2022-08-14T13:09:00.146Z,29.05
2022-08-14T13:11:41.131Z,29.05
2022-08-14T13:14:17.638Z,29.04
2022-08-14T13:16:50.377Z,29.02
2022-08-14T13:19:24.282Z,29.01
2022-08-14T13:22:05.105Z,29.04
2022-08-14T13:24:40.666Z,29.02
2022-08-14T13:27:12.434Z,29.02
2022-08-14T13:29:46.889Z,29.03
2022-08-14T13:32:17.841Z,29.01
2022-08-14T13:34:49.903Z,29.01
2022-08-14T13:37:22.930Z,28.98
2022-08-14T13:39:57.522Z,28.93
2022-08-14T13:42:30.563Z,28.93
2022-08-14T13:45:04.194Z,28.92
2022-08-14T13:47:35.466Z,28.90
2022-08-14T13:50:08.149Z,28.94
2022-08-14T13:52:52.287Z,28.98
2022-08-14T13:55:25.622Z,28.94
2022-08-14T13:58:03.022Z,28.96
2022-08-14T14:00:52.109Z,28.97
2022-08-14T14:03:30.155Z,28.97
2022-08-14T14:06:03.577Z,28.94
2022-08-14T14:08:46.284Z,28.93
2022-08-14T14:11:24.026Z,28.93
2022-08-14T14:13:55.422Z,28.94
2022-08-14T14:16:30.811Z,28.91
2022-08-14T14:19:10.531Z,28.91
2022-08-14T14:21:41.995Z,28.93
2022-08-14T14:24:15.415Z,28.94
2022-08-14T14:26:49.959Z,28.95
2022-08-14T14:29:24.103Z,28.92
2022-08-14T14:31:58.736Z,28.88
2022-08-14T14:34:33.435Z,28.87
2022-08-14T14:37:06.066Z,28.88
2022-08-14T14:39:38.214Z,28.88
2022-08-14T14:42:31.959Z,28.87
2022-08-14T14:45:07.662Z,28.87
2022-08-14T14:47:40.047Z,28.87
2022-08-14T14:50:11.134Z,28.88
2022-08-14T14:52:42.341Z,28.88
2022-08-14T14:55:16.841Z,28.88
2022-08-14T14:57:52.093Z,28.90
2022-08-14T15:00:24.776Z,28.90
2022-08-14T15:03:02.830Z,28.91
2022-08-14T15:05:33.454Z,28.90
2022-08-14T15:08:02.781Z,28.90
2022-08-14T15:10:38.277Z,28.92
2022-08-14T15:13:09.573Z,28.94
2022-08-14T15:15:39.772Z,28.95
2022-08-14T15:18:14.856Z,28.95
2022-08-14T15:21:01.289Z,28.97
2022-08-14T15:23:43.743Z,29.02
2022-08-14T15:26:24.055Z,29.04
2022-08-14T15:29:05.223Z,29.05
2022-08-14T15:31:37.086Z,29.09
2022-08-14T15:34:44.704Z,29.15
2022-08-14T15:37:06.048Z,29.19
2022-08-14T15:39:38.551Z,29.27
2022-08-14T15:42:16.250Z,29.25
2022-08-14T15:44:58.385Z,29.25
2022-08-14T15:47:31.711Z,29.19
2022-08-14T15:50:05.904Z,29.11
2022-08-14T15:52:37.744Z,29.04
2022-08-14T15:55:09.815Z,28.96
2022-08-14T15:57:51.399Z,28.92
2022-08-14T16:00:53.612Z,28.84
2022-08-14T16:03:25.036Z,28.79
2022-08-14T16:06:10.965Z,28.81
2022-08-14T16:08:46.332Z,28.83
2022-08-14T16:11:21.185Z,28.80
2022-08-14T16:13:52.549Z,28.86
2022-08-14T16:16:47.076Z,28.86
2022-08-14T16:19:23.844Z,28.87
2022-08-14T16:22:01.492Z,28.92
2022-08-14T16:25:00.398Z,28.98
2022-08-14T16:27:39.245Z,28.99
2022-08-14T16:30:24.482Z,29.02
2022-08-14T16:33:01.050Z,28.99
2022-08-14T16:35:43.477Z,28.95
2022-08-14T16:38:46.209Z,28.86
2022-08-14T16:41:23.439Z,28.68
2022-08-14T16:43:58.872Z,28.33
2022-08-14T16:46:32.843Z,27.88
2022-08-14T16:49:02.724Z,27.45
2022-08-14T16:51:34.946Z,27.10
2022-08-14T16:54:20.748Z,26.80
2022-08-14T16:57:18.397Z,26.40
2022-08-14T16:59:52.204Z,26.15
2022-08-14T17:02:38.892Z,25.93
2022-08-14T17:05:20.729Z,25.72
2022-08-14T17:08:31.878Z,25.54
2022-08-14T17:11:10.011Z,25.17
2022-08-14T17:13:58.121Z,24.92
2022-08-14T17:16:38.002Z,24.77
2022-08-14T17:19:13.833Z,24.72
2022-08-14T17:21:47.501Z,24.62
2022-08-14T17:24:57.174Z,24.46
2022-08-14T17:27:10.427Z,24.33
2022-08-14T17:29:44.493Z,24.26
2022-08-14T17:32:29.553Z,24.08
2022-08-14T17:35:17.901Z,23.93
2022-08-14T17:37:55.524Z,23.78
2022-08-14T17:40:30.859Z,23.66
2022-08-14T17:43:02.661Z,23.51
2022-08-14T17:45:46.877Z,23.37
2022-08-14T17:49:16.254Z,23.37
2022-08-14T17:51:23.697Z,23.30
2022-08-14T17:54:03.064Z,23.20
2022-08-14T17:56:34.100Z,23.16
2022-08-14T17:59:09.265Z,23.08
2022-08-14T18:01:40.909Z,23.01
2022-08-14T18:04:28.135Z,22.91
2022-08-14T18:07:16.616Z,22.89
2022-08-14T18:09:57.095Z,22.86
2022-08-14T18:12:36.513Z,22.75
2022-08-14T18:15:16.629Z,22.73
2022-08-14T18:17:53.106Z,22.75
2022-08-14T18:21:40.213Z,22.78
2022-08-14T18:23:15.243Z,22.78
2022-08-14T18:25:51.727Z,22.70
2022-08-14T18:28:46.584Z,22.67
2022-08-14T18:31:44.133Z,22.60
2022-08-14T18:34:32.424Z,22.52
2022-08-14T18:37:16.803Z,22.54
2022-08-14T18:40:03.151Z,22.60
2022-08-14T18:42:47.464Z,22.61
2022-08-14T18:45:29.082Z,22.64
2022-08-14T18:48:51.051Z,22.63
2022-08-14T18:51:46.287Z,22.64
2022-08-14T18:54:32.864Z,22.64
2022-08-14T18:57:05.287Z,22.66
2022-08-14T18:59:42.312Z,22.64
2022-08-14T19:02:45.802Z,22.62
2022-08-14T19:05:36.637Z,22.60
2022-08-14T19:08:27.006Z,22.59
2022-08-14T19:10:59.636Z,22.53
2022-08-14T19:13:48.104Z,22.51
2022-08-14T19:16:26.290Z,22.50
2022-08-14T19:19:00.109Z,22.49
2022-08-14T19:21:34.419Z,22.47
2022-08-14T19:24:29.919Z,22.44
2022-08-14T19:27:19.477Z,22.42
2022-08-14T19:29:53.085Z,22.39
2022-08-14T19:32:42.449Z,22.39
2022-08-14T19:35:55.315Z,22.38
2022-08-14T19:38:57.474Z,22.34
2022-08-14T19:41:30.149Z,22.33
2022-08-14T19:44:20.698Z,22.32
2022-08-14T19:47:06.134Z,22.29
2022-08-14T19:50:08.501Z,22.28
2022-08-14T19:52:39.539Z,22.26
2022-08-14T19:55:19.118Z,22.24
2022-08-14T19:57:58.400Z,22.17
2022-08-14T20:00:30.151Z,22.15
2022-08-14T20:03:10.500Z,22.14
2022-08-14T20:05:45.678Z,22.12
2022-08-14T20:10:58.231Z,22.10
2022-08-14T20:11:58.591Z,22.09
2022-08-14T20:14:20.752Z,22.05
2022-08-14T20:17:05.554Z,22.03
2022-08-14T20:19:38.119Z,22.02
2022-08-14T20:22:35.366Z,21.98
2022-08-14T20:25:15.614Z,21.95
2022-08-14T20:27:58.479Z,21.96
2022-08-14T20:30:35.046Z,21.95
2022-08-14T20:33:10.669Z,21.95
2022-08-14T20:35:49.207Z,21.95
2022-08-14T20:38:29.680Z,21.93
2022-08-14T20:41:05.800Z,21.93
2022-08-14T20:43:57.415Z,21.92
2022-08-14T20:46:30.007Z,21.93
2022-08-14T20:49:01.872Z,21.92
2022-08-14T20:51:43.637Z,21.90
2022-08-14T20:54:34.062Z,21.86
2022-08-14T20:57:10.338Z,21.87
2022-08-14T20:59:44.058Z,21.84
2022-08-14T21:02:38.574Z,21.85
2022-08-14T21:05:34.377Z,21.81
2022-08-14T21:08:09.667Z,21.80
2022-08-14T21:10:55.078Z,21.77
2022-08-14T21:14:20.849Z,21.77
2022-08-14T21:16:33.256Z,21.77
2022-08-14T21:19:05.862Z,21.75
2022-08-14T21:21:41.410Z,21.75
2022-08-14T21:24:47.643Z,21.75
2022-08-14T21:27:12.869Z,21.76
2022-08-14T21:29:55.395Z,21.75
2022-08-14T21:32:50.115Z,21.70
2022-08-14T21:35:29.031Z,21.68
2022-08-14T21:37:59.195Z,21.65
2022-08-14T21:40:41.537Z,21.63
2022-08-14T21:43:18.140Z,21.61
2022-08-14T21:45:53.100Z,21.54
2022-08-14T21:48:26.329Z,21.51
2022-08-14T21:51:01.225Z,21.44
2022-08-14T21:53:34.084Z,21.38
2022-08-14T21:56:05.712Z,21.33
2022-08-14T21:58:52.043Z,21.27
2022-08-14T22:01:24.235Z,21.25
2022-08-14T22:03:56.311Z,21.22
2022-08-14T22:06:29.409Z,21.25
2022-08-14T22:08:59.230Z,21.27
2022-08-14T22:11:30.347Z,21.27
2022-08-14T22:14:25.518Z,21.23
2022-08-14T22:17:01.900Z,21.21
2022-08-14T22:19:47.489Z,21.19
2022-08-14T22:22:27.225Z,21.14
2022-08-14T22:24:59.977Z,21.12
2022-08-14T22:27:32.521Z,21.09
2022-08-14T22:30:04.133Z,21.04
2022-08-14T22:32:55.866Z,21.01
2022-08-14T22:35:23.595Z,20.97
2022-08-14T22:38:34.679Z,20.92
2022-08-14T22:41:03.670Z,20.85
2022-08-14T22:43:38.876Z,20.82
2022-08-14T22:46:14.687Z,20.80
2022-08-14T22:48:46.612Z,20.75
2022-08-14T22:51:17.691Z,20.73
2022-08-14T22:53:52.591Z,20.70
2022-08-14T22:56:30.171Z,20.68
2022-08-14T22:59:02.450Z,20.67
2022-08-14T23:01:56.077Z,20.67
2022-08-14T23:04:35.392Z,20.61
2022-08-14T23:07:22.739Z,20.60
2022-08-14T23:10:31.064Z,20.57
2022-08-14T23:12:54.241Z,20.57
2022-08-14T23:15:29.928Z,20.57
2022-08-14T23:17:59.858Z,20.57
2022-08-14T23:20:33.723Z,20.58
2022-08-14T23:23:22.630Z,20.61
2022-08-14T23:25:59.999Z,20.64
2022-08-14T23:28:34.762Z,20.66
2022-08-14T23:31:34.932Z,20.66
2022-08-14T23:34:09.098Z,20.67
2022-08-14T23:36:53.350Z,20.68
2022-08-14T23:39:29.931Z,20.62
2022-08-14T23:42:04.598Z,20.62
2022-08-14T23:44:37.724Z,20.64
2022-08-14T23:47:25.288Z,20.66
2022-08-14T23:50:03.716Z,20.65
2022-08-14T23:52:55.720Z,20.67
2022-08-14T23:55:32.055Z,20.64
2022-08-14T23:58:03.008Z,20.62
